sensor_id;sensor_type;location;lat;lon;timestamp;temperature;humidity
73939;DHT22;62291;47.554;8.504;2023-08-20T00:00:22;19.30;99.90
73939;DHT22;62291;47.554;8.504;2023-08-20T00:02:53;19.30;99.90
73939;DHT22;62291;47.554;8.504;2023-08-20T00:05:20;19.30;99.90
73939;DHT22;62291;47.554;8.504;2023-08-20T00:07:46;19.20;99.90
73939;DHT22;62291;47.554;8.504;2023-08-20T00:10:11;19.20;99.90
73939;DHT22;62291;47.554;8.504;2023-08-20T00:12:37;19.10;99.90
73939;DHT22;62291;47.554;8.504;2023-08-20T00:15:04;19.20;99.90
73939;DHT22;62291;47.554;8.504;2023-08-20T00:17:34;19.20;99.90
73939;DHT22;62291;47.554;8.504;2023-08-20T00:20:01;19.20;99.90
73939;DHT22;62291;47.554;8.504;2023-08-20T00:22:34;19.10;99.90
73939;DHT22;62291;47.554;8.504;2023-08-20T00:25:00;19.20;99.90
73939;DHT22;62291;47.554;8.504;2023-08-20T00:27:25;19.20;99.90
73939;DHT22;62291;47.554;8.504;2023-08-20T00:29:51;19.00;99.90
73939;DHT22;62291;47.554;8.504;2023-08-20T00:32:17;19.00;99.90
73939;DHT22;62291;47.554;8.504;2023-08-20T00:34:43;19.00;99.90
73939;DHT22;62291;47.554;8.504;2023-08-20T00:37:09;19.00;99.90
73939;DHT22;62291;47.554;8.504;2023-08-20T00:39:35;19.00;99.90
73939;DHT22;62291;47.554;8.504;2023-08-20T00:42:01;19.00;99.90
73939;DHT22;62291;47.554;8.504;2023-08-20T00:44:26;18.90;99.90
73939;DHT22;62291;47.554;8.504;2023-08-20T00:46:53;18.90;99.90
73939;DHT22;62291;47.554;8.504;2023-08-20T00:49:18;18.90;99.90
73939;DHT22;62291;47.554;8.504;2023-08-20T00:51:44;18.90;99.90
73939;DHT22;62291;47.554;8.504;2023-08-20T00:54:11;18.90;99.90
73939;DHT22;62291;47.554;8.504;2023-08-20T00:56:37;18.90;99.90
73939;DHT22;62291;47.554;8.504;2023-08-20T00:59:05;19.00;99.90
73939;DHT22;62291;47.554;8.504;2023-08-20T01:01:31;18.90;99.90
73939;DHT22;62291;47.554;8.504;2023-08-20T01:03:56;18.90;99.90
73939;DHT22;62291;47.554;8.504;2023-08-20T01:06:46;18.90;99.90
73939;DHT22;62291;47.554;8.504;2023-08-20T01:11:59;18.90;99.90
73939;DHT22;62291;47.554;8.504;2023-08-20T01:14:25;18.80;99.90
73939;DHT22;62291;47.554;8.504;2023-08-20T01:16:52;18.90;99.90
73939;DHT22;62291;47.554;8.504;2023-08-20T01:19:20;18.80;99.90
73939;DHT22;62291;47.554;8.504;2023-08-20T01:28:20;18.70;99.90
73939;DHT22;62291;47.554;8.504;2023-08-20T01:30:46;18.60;99.90
73939;DHT22;62291;47.554;8.504;2023-08-20T01:33:11;18.50;99.90
73939;DHT22;62291;47.554;8.504;2023-08-20T01:35:38;18.50;99.90
73939;DHT22;62291;47.554;8.504;2023-08-20T01:38:04;18.50;99.90
73939;DHT22;62291;47.554;8.504;2023-08-20T01:40:30;18.50;99.90
73939;DHT22;62291;47.554;8.504;2023-08-20T01:42:56;18.50;99.90
73939;DHT22;62291;47.554;8.504;2023-08-20T01:45:23;18.50;99.90
73939;DHT22;62291;47.554;8.504;2023-08-20T01:47:49;18.50;99.90
73939;DHT22;62291;47.554;8.504;2023-08-20T01:50:15;18.50;99.90
73939;DHT22;62291;47.554;8.504;2023-08-20T01:52:40;18.50;99.90
73939;DHT22;62291;47.554;8.504;2023-08-20T01:55:06;18.40;99.90
73939;DHT22;62291;47.554;8.504;2023-08-20T01:57:32;18.40;99.90
73939;DHT22;62291;47.554;8.504;2023-08-20T01:59:58;18.40;99.90
73939;DHT22;62291;47.554;8.504;2023-08-20T02:02:24;18.50;99.90
73939;DHT22;62291;47.554;8.504;2023-08-20T02:04:50;18.50;99.90
73939;DHT22;62291;47.554;8.504;2023-08-20T02:07:16;18.50;99.90
73939;DHT22;62291;47.554;8.504;2023-08-20T02:09:42;18.50;99.90
73939;DHT22;62291;47.554;8.504;2023-08-20T02:12:08;18.40;99.90
73939;DHT22;62291;47.554;8.504;2023-08-20T02:14:34;18.30;99.90
73939;DHT22;62291;47.554;8.504;2023-08-20T02:17:04;18.30;99.90
73939;DHT22;62291;47.554;8.504;2023-08-20T02:19:30;18.30;99.90
73939;DHT22;62291;47.554;8.504;2023-08-20T02:21:56;18.30;99.90
73939;DHT22;62291;47.554;8.504;2023-08-20T02:24:22;18.30;99.90
73939;DHT22;62291;47.554;8.504;2023-08-20T02:26:47;18.30;99.90
73939;DHT22;62291;47.554;8.504;2023-08-20T02:29:13;18.30;99.90
73939;DHT22;62291;47.554;8.504;2023-08-20T02:31:39;18.40;99.90
73939;DHT22;62291;47.554;8.504;2023-08-20T02:34:04;18.40;99.90
73939;DHT22;62291;47.554;8.504;2023-08-20T02:36:30;18.30;99.90
73939;DHT22;62291;47.554;8.504;2023-08-20T02:38:56;18.20;99.90
73939;DHT22;62291;47.554;8.504;2023-08-20T02:41:21;18.20;99.90
73939;DHT22;62291;47.554;8.504;2023-08-20T02:43:48;18.20;99.90
73939;DHT22;62291;47.554;8.504;2023-08-20T02:46:14;18.20;99.90
73939;DHT22;62291;47.554;8.504;2023-08-20T02:48:40;18.10;99.90
73939;DHT22;62291;47.554;8.504;2023-08-20T02:51:06;18.00;99.90
73939;DHT22;62291;47.554;8.504;2023-08-20T02:53:32;18.00;99.90
73939;DHT22;62291;47.554;8.504;2023-08-20T02:55:58;18.00;99.90
73939;DHT22;62291;47.554;8.504;2023-08-20T02:58:24;18.00;99.90
73939;DHT22;62291;47.554;8.504;2023-08-20T03:00:50;17.90;99.90
73939;DHT22;62291;47.554;8.504;2023-08-20T03:03:16;17.90;99.90
73939;DHT22;62291;47.554;8.504;2023-08-20T03:05:42;17.90;99.90
73939;DHT22;62291;47.554;8.504;2023-08-20T03:08:08;17.90;99.90
73939;DHT22;62291;47.554;8.504;2023-08-20T03:10:35;17.90;99.90
73939;DHT22;62291;47.554;8.504;2023-08-20T03:13:04;17.90;99.90
73939;DHT22;62291;47.554;8.504;2023-08-20T03:15:30;17.80;99.90
73939;DHT22;62291;47.554;8.504;2023-08-20T03:17:56;17.80;99.90
73939;DHT22;62291;47.554;8.504;2023-08-20T03:20:21;17.80;99.90
73939;DHT22;62291;47.554;8.504;2023-08-20T03:22:47;17.90;99.90
73939;DHT22;62291;47.554;8.504;2023-08-20T03:25:13;17.90;99.90
73939;DHT22;62291;47.554;8.504;2023-08-20T03:27:39;17.90;99.90
73939;DHT22;62291;47.554;8.504;2023-08-20T03:30:05;17.90;99.90
73939;DHT22;62291;47.554;8.504;2023-08-20T03:32:31;17.80;99.90
73939;DHT22;62291;47.554;8.504;2023-08-20T03:34:57;17.80;99.90
73939;DHT22;62291;47.554;8.504;2023-08-20T03:37:25;17.80;99.90
73939;DHT22;62291;47.554;8.504;2023-08-20T03:39:51;17.70;99.90
73939;DHT22;62291;47.554;8.504;2023-08-20T03:42:17;17.80;99.90
73939;DHT22;62291;47.554;8.504;2023-08-20T03:44:43;17.80;99.90
73939;DHT22;62291;47.554;8.504;2023-08-20T03:47:08;17.90;99.90
73939;DHT22;62291;47.554;8.504;2023-08-20T03:49:34;18.00;99.90
73939;DHT22;62291;47.554;8.504;2023-08-20T03:52:00;17.90;99.90
73939;DHT22;62291;47.554;8.504;2023-08-20T03:54:28;17.80;99.90
73939;DHT22;62291;47.554;8.504;2023-08-20T03:56:54;17.80;99.90
73939;DHT22;62291;47.554;8.504;2023-08-20T03:59:20;17.80;99.90
73939;DHT22;62291;47.554;8.504;2023-08-20T04:01:46;17.80;99.90
73939;DHT22;62291;47.554;8.504;2023-08-20T04:04:12;17.70;99.90
73939;DHT22;62291;47.554;8.504;2023-08-20T04:06:37;17.60;99.90
73939;DHT22;62291;47.554;8.504;2023-08-20T04:09:03;17.60;99.90
73939;DHT22;62291;47.554;8.504;2023-08-20T04:11:29;17.50;99.90
73939;DHT22;62291;47.554;8.504;2023-08-20T04:13:55;17.60;99.90
73939;DHT22;62291;47.554;8.504;2023-08-20T04:16:21;17.60;99.90
73939;DHT22;62291;47.554;8.504;2023-08-20T04:18:46;17.50;99.90
73939;DHT22;62291;47.554;8.504;2023-08-20T04:21:13;17.70;99.90
73939;DHT22;62291;47.554;8.504;2023-08-20T04:23:40;17.70;99.90
73939;DHT22;62291;47.554;8.504;2023-08-20T04:26:07;17.80;99.90
73939;DHT22;62291;47.554;8.504;2023-08-20T04:28:32;17.80;99.90
73939;DHT22;62291;47.554;8.504;2023-08-20T04:30:58;17.70;99.90
73939;DHT22;62291;47.554;8.504;2023-08-20T04:33:26;17.70;99.90
73939;DHT22;62291;47.554;8.504;2023-08-20T04:35:52;17.70;99.90
73939;DHT22;62291;47.554;8.504;2023-08-20T04:38:18;17.70;99.90
73939;DHT22;62291;47.554;8.504;2023-08-20T04:40:48;17.70;99.90
73939;DHT22;62291;47.554;8.504;2023-08-20T04:43:14;17.70;99.90
73939;DHT22;62291;47.554;8.504;2023-08-20T04:45:41;17.80;99.90
73939;DHT22;62291;47.554;8.504;2023-08-20T04:48:06;17.70;99.90
73939;DHT22;62291;47.554;8.504;2023-08-20T04:50:32;17.70;99.90
73939;DHT22;62291;47.554;8.504;2023-08-20T04:52:58;17.80;99.90
73939;DHT22;62291;47.554;8.504;2023-08-20T04:55:25;18.00;99.90
73939;DHT22;62291;47.554;8.504;2023-08-20T04:57:51;18.20;99.90
73939;DHT22;62291;47.554;8.504;2023-08-20T05:00:17;18.50;99.90
73939;DHT22;62291;47.554;8.504;2023-08-20T05:02:43;18.90;99.90
73939;DHT22;62291;47.554;8.504;2023-08-20T05:05:08;19.30;99.90
73939;DHT22;62291;47.554;8.504;2023-08-20T05:07:34;19.80;99.90
73939;DHT22;62291;47.554;8.504;2023-08-20T05:10:00;20.30;99.90
73939;DHT22;62291;47.554;8.504;2023-08-20T05:12:26;20.80;99.90
73939;DHT22;62291;47.554;8.504;2023-08-20T05:14:51;21.20;99.90
73939;DHT22;62291;47.554;8.504;2023-08-20T05:17:17;21.70;99.90
73939;DHT22;62291;47.554;8.504;2023-08-20T05:19:42;22.10;99.90
73939;DHT22;62291;47.554;8.504;2023-08-20T05:22:08;22.60;99.90
73939;DHT22;62291;47.554;8.504;2023-08-20T05:24:36;23.00;99.90
73939;DHT22;62291;47.554;8.504;2023-08-20T05:27:05;23.40;99.90
73939;DHT22;62291;47.554;8.504;2023-08-20T05:29:31;23.90;99.90
73939;DHT22;62291;47.554;8.504;2023-08-20T05:31:57;24.20;99.90
73939;DHT22;62291;47.554;8.504;2023-08-20T05:34:23;24.80;99.90
73939;DHT22;62291;47.554;8.504;2023-08-20T05:36:48;25.30;99.90
73939;DHT22;62291;47.554;8.504;2023-08-20T05:39:14;25.30;99.90
73939;DHT22;62291;47.554;8.504;2023-08-20T05:41:39;26.00;99.90
73939;DHT22;62291;47.554;8.504;2023-08-20T05:44:05;26.10;99.90
73939;DHT22;62291;47.554;8.504;2023-08-20T05:46:31;26.20;99.90
73939;DHT22;62291;47.554;8.504;2023-08-20T05:48:56;25.80;99.90
73939;DHT22;62291;47.554;8.504;2023-08-20T05:51:22;25.40;99.90
73939;DHT22;62291;47.554;8.504;2023-08-20T05:53:48;25.60;99.90
73939;DHT22;62291;47.554;8.504;2023-08-20T05:56:13;25.50;99.90
73939;DHT22;62291;47.554;8.504;2023-08-20T05:58:39;25.20;99.90
73939;DHT22;62291;47.554;8.504;2023-08-20T06:01:05;24.60;99.90
73939;DHT22;62291;47.554;8.504;2023-08-20T06:03:30;24.00;99.90
73939;DHT22;62291;47.554;8.504;2023-08-20T06:05:59;23.90;99.90
73939;DHT22;62291;47.554;8.504;2023-08-20T06:08:25;23.80;99.90
73939;DHT22;62291;47.554;8.504;2023-08-20T06:10:50;24.00;99.90
73939;DHT22;62291;47.554;8.504;2023-08-20T06:13:16;24.70;99.90
73939;DHT22;62291;47.554;8.504;2023-08-20T06:15:42;25.40;99.90
73939;DHT22;62291;47.554;8.504;2023-08-20T06:18:08;25.80;99.90
73939;DHT22;62291;47.554;8.504;2023-08-20T06:20:33;26.30;99.90
73939;DHT22;62291;47.554;8.504;2023-08-20T06:22:59;27.40;99.90
73939;DHT22;62291;47.554;8.504;2023-08-20T06:25:25;28.50;99.90
73939;DHT22;62291;47.554;8.504;2023-08-20T06:27:50;29.60;99.90
73939;DHT22;62291;47.554;8.504;2023-08-20T06:30:16;29.80;99.40
73939;DHT22;62291;47.554;8.504;2023-08-20T06:32:43;30.00;99.20
73939;DHT22;62291;47.554;8.504;2023-08-20T06:35:09;30.20;98.00
73939;DHT22;62291;47.554;8.504;2023-08-20T06:37:35;29.90;97.60
73939;DHT22;62291;47.554;8.504;2023-08-20T06:40:01;29.50;98.60
73939;DHT22;62291;47.554;8.504;2023-08-20T06:42:26;29.30;98.30
73939;DHT22;62291;47.554;8.504;2023-08-20T06:44:52;29.40;98.70
73939;DHT22;62291;47.554;8.504;2023-08-20T06:47:18;29.60;97.80
73939;DHT22;62291;47.554;8.504;2023-08-20T06:49:44;30.00;98.10
73939;DHT22;62291;47.554;8.504;2023-08-20T06:52:09;30.10;96.40
73939;DHT22;62291;47.554;8.504;2023-08-20T06:54:35;30.10;96.20
73939;DHT22;62291;47.554;8.504;2023-08-20T06:57:01;30.10;96.80
73939;DHT22;62291;47.554;8.504;2023-08-20T06:59:26;30.30;95.30
73939;DHT22;62291;47.554;8.504;2023-08-20T07:01:52;30.40;95.90
73939;DHT22;62291;47.554;8.504;2023-08-20T07:04:18;30.30;95.60
73939;DHT22;62291;47.554;8.504;2023-08-20T07:06:44;30.50;95.00
73939;DHT22;62291;47.554;8.504;2023-08-20T07:09:10;30.80;95.10
73939;DHT22;62291;47.554;8.504;2023-08-20T07:11:35;30.80;95.30
73939;DHT22;62291;47.554;8.504;2023-08-20T07:14:01;31.30;94.40
73939;DHT22;62291;47.554;8.504;2023-08-20T07:16:27;31.60;93.70
73939;DHT22;62291;47.554;8.504;2023-08-20T07:18:52;32.20;92.20
73939;DHT22;62291;47.554;8.504;2023-08-20T07:21:18;31.90;92.00
73939;DHT22;62291;47.554;8.504;2023-08-20T07:23:44;31.50;92.50
73939;DHT22;62291;47.554;8.504;2023-08-20T07:26:10;32.30;91.60
73939;DHT22;62291;47.554;8.504;2023-08-20T07:28:40;32.10;91.50
73939;DHT22;62291;47.554;8.504;2023-08-20T07:31:30;32.00;91.10
73939;DHT22;62291;47.554;8.504;2023-08-20T07:33:57;31.80;90.20
73939;DHT22;62291;47.554;8.504;2023-08-20T07:36:24;31.40;91.90
73939;DHT22;62291;47.554;8.504;2023-08-20T07:38:53;32.10;90.80
73939;DHT22;62291;47.554;8.504;2023-08-20T07:41:20;33.20;91.00
73939;DHT22;62291;47.554;8.504;2023-08-20T07:43:46;33.60;90.30
73939;DHT22;62291;47.554;8.504;2023-08-20T07:46:12;33.10;86.40
73939;DHT22;62291;47.554;8.504;2023-08-20T07:48:39;32.80;88.80
73939;DHT22;62291;47.554;8.504;2023-08-20T07:51:05;32.50;88.90
73939;DHT22;62291;47.554;8.504;2023-08-20T07:53:31;32.30;90.10
73939;DHT22;62291;47.554;8.504;2023-08-20T07:55:57;32.40;90.20
73939;DHT22;62291;47.554;8.504;2023-08-20T07:58:23;32.50;89.30
73939;DHT22;62291;47.554;8.504;2023-08-20T08:00:49;32.50;87.40
73939;DHT22;62291;47.554;8.504;2023-08-20T08:03:14;32.70;85.00
73939;DHT22;62291;47.554;8.504;2023-08-20T08:05:41;32.30;85.80
73939;DHT22;62291;47.554;8.504;2023-08-20T08:08:06;32.40;88.00
73939;DHT22;62291;47.554;8.504;2023-08-20T08:10:32;32.30;87.00
73939;DHT22;62291;47.554;8.504;2023-08-20T08:12:58;32.10;85.90
73939;DHT22;62291;47.554;8.504;2023-08-20T08:15:23;31.60;87.80
73939;DHT22;62291;47.554;8.504;2023-08-20T08:17:49;31.30;89.50
73939;DHT22;62291;47.554;8.504;2023-08-20T08:20:15;32.00;89.20
73939;DHT22;62291;47.554;8.504;2023-08-20T08:22:41;32.70;85.20
73939;DHT22;62291;47.554;8.504;2023-08-20T08:25:06;33.60;84.30
73939;DHT22;62291;47.554;8.504;2023-08-20T08:27:32;35.00;81.00
73939;DHT22;62291;47.554;8.504;2023-08-20T08:29:58;35.80;78.70
73939;DHT22;62291;47.554;8.504;2023-08-20T08:32:24;36.00;73.10
73939;DHT22;62291;47.554;8.504;2023-08-20T08:34:50;35.30;72.60
73939;DHT22;62291;47.554;8.504;2023-08-20T08:37:16;33.60;74.50
73939;DHT22;62291;47.554;8.504;2023-08-20T08:39:41;33.60;79.10
73939;DHT22;62291;47.554;8.504;2023-08-20T08:42:07;33.40;77.00
73939;DHT22;62291;47.554;8.504;2023-08-20T08:44:37;33.70;76.90
73939;DHT22;62291;47.554;8.504;2023-08-20T08:47:04;34.30;75.40
73939;DHT22;62291;47.554;8.504;2023-08-20T08:49:34;34.80;74.00
73939;DHT22;62291;47.554;8.504;2023-08-20T08:52:00;34.90;75.10
73939;DHT22;62291;47.554;8.504;2023-08-20T08:54:27;35.50;73.70
73939;DHT22;62291;47.554;8.504;2023-08-20T08:56:52;35.20;71.90
73939;DHT22;62291;47.554;8.504;2023-08-20T08:59:19;35.30;70.70
73939;DHT22;62291;47.554;8.504;2023-08-20T09:01:45;35.90;70.70
73939;DHT22;62291;47.554;8.504;2023-08-20T09:04:10;36.20;70.20
73939;DHT22;62291;47.554;8.504;2023-08-20T09:06:50;35.60;70.00
73939;DHT22;62291;47.554;8.504;2023-08-20T09:09:17;35.20;71.50
73939;DHT22;62291;47.554;8.504;2023-08-20T09:11:44;34.70;71.10
73939;DHT22;62291;47.554;8.504;2023-08-20T09:14:29;34.60;74.00
73939;DHT22;62291;47.554;8.504;2023-08-20T09:16:59;35.90;71.30
73939;DHT22;62291;47.554;8.504;2023-08-20T09:19:28;35.60;70.20
73939;DHT22;62291;47.554;8.504;2023-08-20T09:21:58;34.90;70.60
73939;DHT22;62291;47.554;8.504;2023-08-20T09:24:34;35.70;73.40
73939;DHT22;62291;47.554;8.504;2023-08-20T09:27:05;36.90;70.80
73939;DHT22;62291;47.554;8.504;2023-08-20T09:29:32;37.30;69.10
73939;DHT22;62291;47.554;8.504;2023-08-20T09:32:02;36.90;68.30
73939;DHT22;62291;47.554;8.504;2023-08-20T09:34:37;36.10;71.50
73939;DHT22;62291;47.554;8.504;2023-08-20T09:37:17;35.90;70.40
73939;DHT22;62291;47.554;8.504;2023-08-20T09:39:43;36.40;69.70
73939;DHT22;62291;47.554;8.504;2023-08-20T09:42:10;36.30;68.80
73939;DHT22;62291;47.554;8.504;2023-08-20T09:44:38;36.20;68.70
73939;DHT22;62291;47.554;8.504;2023-08-20T09:47:09;36.90;66.50
73939;DHT22;62291;47.554;8.504;2023-08-20T09:49:45;37.60;66.60
73939;DHT22;62291;47.554;8.504;2023-08-20T09:52:16;37.70;67.10
73939;DHT22;62291;47.554;8.504;2023-08-20T09:57:37;37.90;64.90
73939;DHT22;62291;47.554;8.504;2023-08-20T10:00:08;38.20;64.30
73939;DHT22;62291;47.554;8.504;2023-08-20T10:02:38;38.50;64.50
73939;DHT22;62291;47.554;8.504;2023-08-20T10:05:05;38.60;62.90
73939;DHT22;62291;47.554;8.504;2023-08-20T10:07:32;38.90;61.30
73939;DHT22;62291;47.554;8.504;2023-08-20T10:09:59;39.20;59.60
73939;DHT22;62291;47.554;8.504;2023-08-20T10:12:29;38.70;59.10
73939;DHT22;62291;47.554;8.504;2023-08-20T10:14:56;37.50;59.10
73939;DHT22;62291;47.554;8.504;2023-08-20T10:17:23;37.00;63.80
73939;DHT22;62291;47.554;8.504;2023-08-20T10:19:51;37.10;63.60
73939;DHT22;62291;47.554;8.504;2023-08-20T10:22:17;37.20;62.60
73939;DHT22;62291;47.554;8.504;2023-08-20T10:24:51;37.60;64.60
73939;DHT22;62291;47.554;8.504;2023-08-20T10:29:55;38.30;61.40
73939;DHT22;62291;47.554;8.504;2023-08-20T10:32:43;38.10;59.00
73939;DHT22;62291;47.554;8.504;2023-08-20T10:35:07;37.20;61.60
73939;DHT22;62291;47.554;8.504;2023-08-20T10:37:34;37.20;63.00
73939;DHT22;62291;47.554;8.504;2023-08-20T10:40:00;37.30;61.60
73939;DHT22;62291;47.554;8.504;2023-08-20T10:42:26;37.00;62.80
73939;DHT22;62291;47.554;8.504;2023-08-20T10:45:05;36.80;63.50
73939;DHT22;62291;47.554;8.504;2023-08-20T10:50:03;37.10;64.70
73939;DHT22;62291;47.554;8.504;2023-08-20T10:52:29;36.50;63.90
73939;DHT22;62291;47.554;8.504;2023-08-20T10:54:56;36.30;62.60
73939;DHT22;62291;47.554;8.504;2023-08-20T10:57:21;36.20;66.20
73939;DHT22;62291;47.554;8.504;2023-08-20T10:59:57;36.10;66.90
73939;DHT22;62291;47.554;8.504;2023-08-20T11:02:23;35.60;62.60
73939;DHT22;62291;47.554;8.504;2023-08-20T11:04:50;35.50;63.60
73939;DHT22;62291;47.554;8.504;2023-08-20T11:07:17;35.60;65.00
73939;DHT22;62291;47.554;8.504;2023-08-20T11:09:45;35.50;65.70
73939;DHT22;62291;47.554;8.504;2023-08-20T11:12:14;35.50;65.70
73939;DHT22;62291;47.554;8.504;2023-08-20T11:14:40;35.90;67.10
73939;DHT22;62291;47.554;8.504;2023-08-20T11:17:07;36.00;68.10
73939;DHT22;62291;47.554;8.504;2023-08-20T11:19:33;35.90;65.40
73939;DHT22;62291;47.554;8.504;2023-08-20T11:21:59;35.50;67.50
73939;DHT22;62291;47.554;8.504;2023-08-20T11:24:29;35.30;68.50
73939;DHT22;62291;47.554;8.504;2023-08-20T11:26:55;35.20;68.70
73939;DHT22;62291;47.554;8.504;2023-08-20T11:29:25;35.40;68.40
73939;DHT22;62291;47.554;8.504;2023-08-20T11:31:52;35.50;69.10
73939;DHT22;62291;47.554;8.504;2023-08-20T11:34:21;35.70;68.50
73939;DHT22;62291;47.554;8.504;2023-08-20T11:36:47;35.50;67.40
73939;DHT22;62291;47.554;8.504;2023-08-20T11:39:13;35.20;67.20
73939;DHT22;62291;47.554;8.504;2023-08-20T11:41:40;34.90;69.10
73939;DHT22;62291;47.554;8.504;2023-08-20T11:44:08;35.00;68.80
73939;DHT22;62291;47.554;8.504;2023-08-20T11:46:42;35.10;65.80
73939;DHT22;62291;47.554;8.504;2023-08-20T11:49:09;34.90;67.30
73939;DHT22;62291;47.554;8.504;2023-08-20T11:51:38;35.00;65.00
73939;DHT22;62291;47.554;8.504;2023-08-20T11:54:13;35.20;65.40
73939;DHT22;62291;47.554;8.504;2023-08-20T11:58:22;35.40;65.80
73939;DHT22;62291;47.554;8.504;2023-08-20T12:00:49;35.50;69.60
73939;DHT22;62291;47.554;8.504;2023-08-20T12:03:18;35.30;62.70
73939;DHT22;62291;47.554;8.504;2023-08-20T12:05:44;35.20;62.30
73939;DHT22;62291;47.554;8.504;2023-08-20T12:08:15;35.20;64.40
73939;DHT22;62291;47.554;8.504;2023-08-20T12:10:43;35.30;67.90
73939;DHT22;62291;47.554;8.504;2023-08-20T12:13:09;35.30;61.10
73939;DHT22;62291;47.554;8.504;2023-08-20T12:15:34;35.30;61.10
73939;DHT22;62291;47.554;8.504;2023-08-20T12:18:02;35.00;61.80
73939;DHT22;62291;47.554;8.504;2023-08-20T12:20:31;34.90;63.00
73939;DHT22;62291;47.554;8.504;2023-08-20T12:23:06;35.10;64.10
73939;DHT22;62291;47.554;8.504;2023-08-20T12:25:34;35.20;63.00
73939;DHT22;62291;47.554;8.504;2023-08-20T12:28:04;35.10;60.00
73939;DHT22;62291;47.554;8.504;2023-08-20T12:30:33;34.90;65.40
73939;DHT22;62291;47.554;8.504;2023-08-20T12:33:02;35.00;63.50
73939;DHT22;62291;47.554;8.504;2023-08-20T12:35:28;35.10;61.80
73939;DHT22;62291;47.554;8.504;2023-08-20T12:37:54;35.20;63.70
73939;DHT22;62291;47.554;8.504;2023-08-20T12:40:20;35.20;62.50
73939;DHT22;62291;47.554;8.504;2023-08-20T12:42:45;35.20;60.30
73939;DHT22;62291;47.554;8.504;2023-08-20T12:45:11;35.10;61.00
73939;DHT22;62291;47.554;8.504;2023-08-20T12:47:39;34.90;60.30
73939;DHT22;62291;47.554;8.504;2023-08-20T12:50:05;34.90;62.60
73939;DHT22;62291;47.554;8.504;2023-08-20T12:52:32;34.90;63.30
73939;DHT22;62291;47.554;8.504;2023-08-20T12:54:57;35.00;65.00
73939;DHT22;62291;47.554;8.504;2023-08-20T12:57:23;35.20;66.30
73939;DHT22;62291;47.554;8.504;2023-08-20T12:59:49;35.10;60.40
73939;DHT22;62291;47.554;8.504;2023-08-20T13:02:15;35.10;65.60
73939;DHT22;62291;47.554;8.504;2023-08-20T13:04:41;35.10;68.40
73939;DHT22;62291;47.554;8.504;2023-08-20T13:07:07;35.00;65.60
73939;DHT22;62291;47.554;8.504;2023-08-20T13:09:33;35.00;64.20
73939;DHT22;62291;47.554;8.504;2023-08-20T13:12:01;34.90;66.20
73939;DHT22;62291;47.554;8.504;2023-08-20T13:14:30;35.00;64.10
73939;DHT22;62291;47.554;8.504;2023-08-20T13:16:56;35.10;65.60
73939;DHT22;62291;47.554;8.504;2023-08-20T13:19:22;35.10;66.60
73939;DHT22;62291;47.554;8.504;2023-08-20T13:21:48;35.10;64.50
73939;DHT22;62291;47.554;8.504;2023-08-20T13:24:13;35.20;63.90
73939;DHT22;62291;47.554;8.504;2023-08-20T13:26:39;35.10;62.50
73939;DHT22;62291;47.554;8.504;2023-08-20T13:29:05;35.00;61.90
73939;DHT22;62291;47.554;8.504;2023-08-20T13:31:30;34.90;64.50
73939;DHT22;62291;47.554;8.504;2023-08-20T13:33:56;34.80;62.00
73939;DHT22;62291;47.554;8.504;2023-08-20T13:36:22;34.50;65.30
73939;DHT22;62291;47.554;8.504;2023-08-20T13:38:47;34.50;64.80
73939;DHT22;62291;47.554;8.504;2023-08-20T13:41:13;34.50;64.80
73939;DHT22;62291;47.554;8.504;2023-08-20T13:43:39;34.60;66.70
73939;DHT22;62291;47.554;8.504;2023-08-20T13:46:04;34.50;64.10
73939;DHT22;62291;47.554;8.504;2023-08-20T13:48:30;34.60;67.80
73939;DHT22;62291;47.554;8.504;2023-08-20T13:50:56;34.50;67.70
73939;DHT22;62291;47.554;8.504;2023-08-20T13:53:22;34.60;67.00
73939;DHT22;62291;47.554;8.504;2023-08-20T13:55:47;34.80;65.70
73939;DHT22;62291;47.554;8.504;2023-08-20T13:58:13;34.80;67.00
73939;DHT22;62291;47.554;8.504;2023-08-20T14:00:40;34.80;65.70
73939;DHT22;62291;47.554;8.504;2023-08-20T14:03:06;34.70;66.50
73939;DHT22;62291;47.554;8.504;2023-08-20T14:05:32;34.70;66.10
73939;DHT22;62291;47.554;8.504;2023-08-20T14:07:57;34.80;68.00
73939;DHT22;62291;47.554;8.504;2023-08-20T14:10:23;34.80;65.80
73939;DHT22;62291;47.554;8.504;2023-08-20T14:12:49;34.90;65.60
73939;DHT22;62291;47.554;8.504;2023-08-20T14:15:15;34.90;64.20
73939;DHT22;62291;47.554;8.504;2023-08-20T14:17:40;34.90;66.80
73939;DHT22;62291;47.554;8.504;2023-08-20T14:20:06;34.90;66.10
73939;DHT22;62291;47.554;8.504;2023-08-20T14:22:33;34.80;67.20
73939;DHT22;62291;47.554;8.504;2023-08-20T14:24:59;34.80;67.00
73939;DHT22;62291;47.554;8.504;2023-08-20T14:27:24;34.90;68.80
73939;DHT22;62291;47.554;8.504;2023-08-20T14:29:50;35.00;65.80
73939;DHT22;62291;47.554;8.504;2023-08-20T14:32:16;35.00;64.80
73939;DHT22;62291;47.554;8.504;2023-08-20T14:34:41;34.90;62.30
73939;DHT22;62291;47.554;8.504;2023-08-20T14:37:07;34.80;63.70
73939;DHT22;62291;47.554;8.504;2023-08-20T14:39:35;34.80;64.60
73939;DHT22;62291;47.554;8.504;2023-08-20T14:42:01;34.80;63.50
73939;DHT22;62291;47.554;8.504;2023-08-20T14:44:27;34.80;63.20
73939;DHT22;62291;47.554;8.504;2023-08-20T14:46:53;34.80;64.00
73939;DHT22;62291;47.554;8.504;2023-08-20T14:49:19;34.90;66.50
73939;DHT22;62291;47.554;8.504;2023-08-20T14:51:45;34.80;62.70
73939;DHT22;62291;47.554;8.504;2023-08-20T14:54:10;34.90;63.70
73939;DHT22;62291;47.554;8.504;2023-08-20T14:56:37;34.80;62.60
73939;DHT22;62291;47.554;8.504;2023-08-20T14:59:02;34.70;62.20
73939;DHT22;62291;47.554;8.504;2023-08-20T15:01:29;34.80;61.00
73939;DHT22;62291;47.554;8.504;2023-08-20T15:03:55;35.10;63.30
73939;DHT22;62291;47.554;8.504;2023-08-20T15:06:21;35.10;59.70
73939;DHT22;62291;47.554;8.504;2023-08-20T15:08:48;35.10;61.20
73939;DHT22;62291;47.554;8.504;2023-08-20T15:11:13;35.30;63.00
73939;DHT22;62291;47.554;8.504;2023-08-20T15:13:39;35.50;62.60
73939;DHT22;62291;47.554;8.504;2023-08-20T15:16:05;35.50;62.60
73939;DHT22;62291;47.554;8.504;2023-08-20T15:18:30;35.30;59.70
73939;DHT22;62291;47.554;8.504;2023-08-20T15:20:57;35.40;60.00
73939;DHT22;62291;47.554;8.504;2023-08-20T15:23:24;35.50;60.30
73939;DHT22;62291;47.554;8.504;2023-08-20T15:25:52;35.60;66.00
73939;DHT22;62291;47.554;8.504;2023-08-20T15:28:19;35.50;59.40
73939;DHT22;62291;47.554;8.504;2023-08-20T15:30:45;35.60;59.80
73939;DHT22;62291;47.554;8.504;2023-08-20T15:33:10;35.60;58.30
73939;DHT22;62291;47.554;8.504;2023-08-20T15:35:36;35.60;60.30
73939;DHT22;62291;47.554;8.504;2023-08-20T15:38:02;35.50;58.60
73939;DHT22;62291;47.554;8.504;2023-08-20T15:40:28;35.40;60.10
73939;DHT22;62291;47.554;8.504;2023-08-20T15:42:53;35.40;59.10
73939;DHT22;62291;47.554;8.504;2023-08-20T15:45:19;35.30;58.90